Time;durP1;ratioP1;P1;durP2;ratioP2;P2;SDS_P1;SDS_P2;PMS_P1;PMS_P2;Temp;Humidity;BMP_temperature;BMP_pressure;BME280_temperature;BME280_humidity;BME280_pressure;Samples;Min_cycle;Max_cycle;Signal;HPM_P1;HPM_P2
2021/07/29 00:00:08;;;;;;;9.43;6.17;;;;;;;22.61;78.24;99305.00;4975794;28;20089;-68
2021/07/29 00:02:38;;;;;;;9.50;6.63;;;;;;;22.61;78.40;99305.00;4975484;28;20281;-68
2021/07/29 00:05:08;;;;;;;9.05;6.15;;;;;;;22.53;77.99;99307.13;4975675;28;20062;-68
2021/07/29 00:07:40;;;;;;;9.40;5.75;;;;;;;22.53;78.13;99296.72;4975305;28;20097;-68
2021/07/29 00:10:09;;;;;;;9.73;6.28;;;;;;;22.60;77.99;99282.44;4975452;28;20062;-68
2021/07/29 00:12:38;;;;;;;8.23;5.82;;;;;;;22.59;77.74;99290.34;4975321;28;20121;-68
2021/07/29 00:15:11;;;;;;;9.38;5.93;;;;;;;22.51;77.47;99282.97;4975844;28;20126;-68
2021/07/29 00:20:19;;;;;;;9.77;5.80;;;;;;;22.47;77.36;99281.47;4975579;28;20046;-68
2021/07/29 00:22:53;;;;;;;9.25;6.15;;;;;;;22.46;77.40;99274.59;4975532;28;20497;-68
2021/07/29 00:25:23;;;;;;;11.40;6.80;;;;;;;22.45;77.27;99267.72;4975014;28;20047;-68
2021/07/29 00:27:53;;;;;;;9.02;6.03;;;;;;;22.53;77.37;99259.50;4975716;28;20125;-68
2021/07/29 00:30:24;;;;;;;8.40;5.55;;;;;;;22.58;77.12;99255.69;4973789;28;20043;-68
2021/07/29 00:32:54;;;;;;;8.75;5.90;;;;;;;22.62;76.84;99259.00;4974830;28;20062;-68
2021/07/29 00:35:23;;;;;;;7.93;5.72;;;;;;;22.57;76.70;99256.63;4975274;28;20047;-68
2021/07/29 00:38:00;;;;;;;8.20;5.85;;;;;;;22.55;76.44;99257.66;4975196;28;20134;-68
2021/07/29 00:40:30;;;;;;;9.82;6.20;;;;;;;22.41;76.76;99257.56;4974979;28;20464;-68
2021/07/29 00:42:59;;;;;;;10.18;5.80;;;;;;;22.42;76.96;99261.84;4974882;28;20493;-69
2021/07/29 00:45:28;;;;;;;9.60;6.50;;;;;;;22.45;76.89;99261.69;4975102;28;20089;-68
2021/07/29 00:47:58;;;;;;;9.45;5.78;;;;;;;22.52;77.10;99258.66;4975161;28;20094;-68
2021/07/29 00:50:38;;;;;;;9.35;6.32;;;;;;;22.56;77.06;99262.75;4974796;28;20055;-68
2021/07/29 00:53:09;;;;;;;7.63;5.82;;;;;;;22.59;76.73;99254.78;4975398;28;20065;-68
2021/07/29 00:55:39;;;;;;;8.68;6.13;;;;;;;22.62;76.46;99244.25;4975123;28;20042;-68
2021/07/29 00:58:07;;;;;;;7.82;6.07;;;;;;;22.64;76.50;99242.38;4975040;28;20034;-68
2021/07/29 01:00:37;;;;;;;11.80;5.95;;;;;;;22.66;76.23;99242.28;4974705;28;20452;-68
2021/07/29 01:03:06;;;;;;;8.65;6.18;;;;;;;22.65;76.09;99246.63;4975249;28;20072;-69
2021/07/29 01:05:35;;;;;;;9.13;6.10;;;;;;;22.68;75.97;99248.22;4974925;28;20512;-68
2021/07/29 01:08:04;;;;;;;9.07;6.43;;;;;;;22.70;75.99;99255.97;4974942;28;20070;-68
2021/07/29 01:10:35;;;;;;;14.40;6.78;;;;;;;22.68;75.81;99256.88;4974668;28;20063;-68
2021/07/29 01:13:04;;;;;;;11.13;6.38;;;;;;;22.73;75.69;99268.78;4975466;28;20039;-68
2021/07/29 01:15:33;;;;;;;8.52;6.68;;;;;;;22.74;75.79;99278.28;4975246;28;20066;-68
2021/07/29 01:18:02;;;;;;;7.60;5.63;;;;;;;22.73;76.11;99287.00;4974868;28;20384;-68
2021/07/29 01:20:32;;;;;;;8.90;5.38;;;;;;;22.72;76.13;99295.75;4974561;28;20051;-69
2021/07/29 01:23:04;;;;;;;8.13;5.82;;;;;;;22.72;76.21;99293.16;4974737;28;20122;-68
2021/07/29 01:25:32;;;;;;;8.48;6.10;;;;;;;22.68;76.29;99305.47;4957119;28;20401;-68
2021/07/29 01:28:01;;;;;;;6.82;5.18;;;;;;;22.63;76.51;99295.34;4957164;28;20134;-69
2021/07/29 01:30:30;;;;;;;7.45;5.18;;;;;;;22.67;76.44;99290.81;4974407;28;20078;-68
2021/07/29 01:33:04;;;;;;;6.72;4.82;;;;;;;22.70;76.41;99292.41;4974685;28;20370;-69
2021/07/29 01:35:34;;;;;;;7.40;5.40;;;;;;;22.68;76.54;99287.25;4974310;28;20051;-69
2021/07/29 01:38:03;;;;;;;7.35;5.25;;;;;;;22.63;76.71;99292.72;4973966;28;20061;-69
2021/07/29 01:40:32;;;;;;;6.85;4.40;;;;;;;22.59;76.73;99291.19;4974394;28;20082;-69
2021/07/29 01:43:01;;;;;;;;;;;;;;;22.56;76.94;99291.38;4978339;28;20490;-69
2021/07/29 01:45:31;;;;;;;6.85;4.55;;;;;;;22.49;77.08;99289.19;4977894;28;19929;-69
2021/07/29 01:47:59;;;;;;;6.20;4.35;;;;;;;22.43;77.29;99295.59;4977940;28;20050;-69
2021/07/29 01:50:28;;;;;;;5.32;4.05;;;;;;;22.37;77.58;99290.72;4978234;28;20097;-69
2021/07/29 01:52:59;;;;;;;7.40;4.43;;;;;;;22.30;77.85;99288.53;4978427;28;20051;-69
2021/07/29 01:55:28;;;;;;;7.13;4.65;;;;;;;22.31;77.90;99291.06;4977748;28;20047;-69
2021/07/29 01:57:56;;;;;;;7.18;4.60;;;;;;;22.32;77.94;99292.72;4977752;28;20125;-69
2021/07/29 02:00:25;;;;;;;6.25;4.47;;;;;;;22.34;78.02;99290.88;4978294;28;20553;-69
2021/07/29 02:02:54;;;;;;;7.82;5.00;;;;;;;22.36;78.05;99294.22;4977615;28;20090;-68
2021/07/29 02:05:23;;;;;;;7.70;5.93;;;;;;;22.42;78.18;99301.69;4977570;28;20049;-68
2021/07/29 02:07:52;;;;;;;8.83;5.90;;;;;;;22.35;78.22;99292.56;4977563;28;20694;-67
2021/07/29 02:10:22;;;;;;;9.38;6.20;;;;;;;22.30;78.40;99304.97;4977834;28;20296;-67
2021/07/29 02:12:52;;;;;;;9.43;6.30;;;;;;;22.16;78.85;99302.28;4978144;28;20039;-66
2021/07/29 02:15:21;;;;;;;9.63;6.30;;;;;;;22.06;79.10;99301.09;4977468;28;20070;-66
2021/07/29 02:17:50;;;;;;;11.80;7.05;;;;;;;21.96;79.43;99307.69;4977982;28;20039;-67
2021/07/29 02:20:19;;;;;;;10.30;7.22;;;;;;;21.90;79.83;99316.66;4977705;28;20492;-67
2021/07/29 02:22:48;;;;;;;11.50;7.38;;;;;;;21.80;79.91;99309.38;4977910;28;20485;-67
2021/07/29 02:25:18;;;;;;;9.90;7.05;;;;;;;21.73;80.34;99305.44;4977238;28;20047;-67
2021/07/29 02:27:49;;;;;;;11.40;7.05;;;;;;;21.78;80.63;99306.03;4977160;28;20397;-67
2021/07/29 02:30:18;;;;;;;9.77;7.32;;;;;;;21.84;80.49;99305.69;4977553;28;20043;-67
2021/07/29 02:32:47;;;;;;;10.68;6.78;;;;;;;21.70;80.61;99308.19;4976856;28;20047;-68
2021/07/29 02:35:16;;;;;;;8.88;6.32;;;;;;;21.60;80.71;99306.97;4977172;28;20047;-68
2021/07/29 02:37:45;;;;;;;9.07;6.83;;;;;;;21.49;80.89;99312.75;4976982;28;20043;-68
2021/07/29 02:40:14;;;;;;;9.18;6.53;;;;;;;21.34;81.26;99316.09;4977307;28;20280;-68
2021/07/29 02:42:43;;;;;;;7.85;6.00;;;;;;;21.18;81.45;99315.19;4977021;28;20126;-68
2021/07/29 02:45:15;;;;;;;8.00;6.25;;;;;;;21.18;81.73;99323.84;4976812;28;20485;-67
2021/07/29 02:47:44;;;;;;;7.97;5.90;;;;;;;21.18;82.15;99329.03;4977156;28;20370;-68
2021/07/29 02:50:13;;;;;;;9.55;6.13;;;;;;;21.06;81.95;99337.41;4977062;28;20125;-68
2021/07/29 02:52:42;;;;;;;9.35;5.75;;;;;;;20.94;82.12;99343.16;4975878;28;20106;-68
2021/07/29 02:55:11;;;;;;;;;;;;;;;20.91;82.19;99338.13;4977484;28;20117;-68
2021/07/29 02:57:40;;;;;;;8.10;5.20;;;;;;;20.76;81.92;99336.25;4977021;28;19929;-68
2021/07/29 03:00:09;;;;;;;11.83;5.57;;;;;;;20.73;81.81;99339.00;4976759;28;20070;-67
2021/07/29 03:02:41;;;;;;;6.90;5.00;;;;;;;20.80;81.85;99340.38;4976923;28;20273;-68
2021/07/29 03:05:10;;;;;;;7.47;5.10;;;;;;;20.69;81.77;99338.28;4976544;28;20505;-68
2021/07/29 03:07:39;;;;;;;6.70;4.53;;;;;;;20.59;81.52;99338.78;4976446;28;20038;-68
2021/07/29 03:10:09;;;;;;;6.78;4.43;;;;;;;20.52;81.58;99339.97;4976259;28;20130;-68
2021/07/29 03:12:38;;;;;;;;;;;;;;;20.49;81.44;99340.16;4976799;28;20125;-68
2021/07/29 03:15:08;;;;;;;6.72;4.20;;;;;;;20.32;81.44;99347.84;4976632;28;19924;-67
2021/07/29 03:17:37;;;;;;;5.85;4.30;;;;;;;20.21;81.39;99344.84;4976644;28;20047;-68
2021/07/29 03:20:09;;;;;;;7.53;5.00;;;;;;;20.28;81.61;99351.47;4976383;28;20063;-68
2021/07/29 03:22:38;;;;;;;7.45;4.45;;;;;;;20.33;81.65;99355.56;4975317;28;20050;-68
2021/07/29 03:25:07;;;;;;;6.13;4.30;;;;;;;20.34;82.02;99359.00;4976508;28;20062;-68
2021/07/29 03:27:36;;;;;;;;;;;;;;;20.27;81.75;99362.78;4976468;28;20281;-68
2021/07/29 03:30:06;;;;;;;7.20;4.32;;;;;;;20.18;82.09;99370.94;4976085;28;19972;-68
2021/07/29 03:32:35;;;;;;;5.57;3.90;;;;;;;20.23;81.90;99376.78;4976035;28;20063;-68
2021/07/29 03:35:05;;;;;;;8.55;3.92;;;;;;;20.04;82.03;99372.38;4976394;28;20061;-68
2021/07/29 03:37:35;;;;;;;8.60;4.13;;;;;;;19.98;82.56;99375.25;4976233;28;20153;-68
2021/07/29 03:40:06;;;;;;;7.50;3.58;;;;;;;20.08;82.34;99375.69;4976177;28;20433;-68
2021/07/29 03:42:36;;;;;;;5.43;3.40;;;;;;;20.03;82.27;99378.44;4975888;28;20043;-68
2021/07/29 03:45:05;;;;;;;5.78;3.72;;;;;;;19.97;82.14;99378.75;4975818;28;20556;-68
2021/07/29 03:47:35;;;;;;;5.70;3.42;;;;;;;19.92;82.33;99372.06;4974524;28;20070;-68
2021/07/29 03:50:05;;;;;;;6.20;3.30;;;;;;;19.82;82.29;99371.63;4976312;28;20050;-68
2021/07/29 03:52:38;;;;;;;5.90;3.50;;;;;;;19.69;82.55;99375.66;4975657;28;20054;-68
2021/07/29 03:55:08;;;;;;;5.82;3.35;;;;;;;19.66;82.63;99367.16;4975694;28;20070;-68
2021/07/29 03:57:37;;;;;;;6.72;3.58;;;;;;;19.87;83.21;99367.09;4976035;28;20050;-68
2021/07/29 04:00:10;;;;;;;6.15;4.10;;;;;;;19.98;83.05;99375.25;4975547;28;20456;-68
2021/07/29 04:02:39;;;;;;;6.90;3.97;;;;;;;20.04;83.19;99369.78;4975948;28;20134;-68
2021/07/29 04:05:09;;;;;;;6.40;4.07;;;;;;;20.21;82.91;99365.59;4975667;28;20054;-68
2021/07/29 04:07:40;;;;;;;7.35;4.45;;;;;;;20.39;82.54;99364.81;4975667;28;20034;-68
2021/07/29 04:10:10;;;;;;;5.35;3.88;;;;;;;20.45;81.75;99375.72;4975389;28;20050;-68
2021/07/29 04:12:39;;;;;;;7.55;3.72;;;;;;;20.36;81.83;99388.28;4975527;28;20509;-68
2021/07/29 04:15:09;;;;;;;5.38;3.42;;;;;;;20.22;81.93;99381.13;4975381;28;20093;-68
2021/07/29 04:17:41;;;;;;;6.13;3.70;;;;;;;20.28;82.10;99387.75;4975626;28;20035;-68
2021/07/29 04:20:11;;;;;;;5.90;3.63;;;;;;;20.40;81.21;99397.59;4975311;28;20038;-68
2021/07/29 04:22:41;;;;;;;6.90;3.92;;;;;;;20.47;81.42;99401.59;4975216;28;20042;-68
2021/07/29 04:25:11;;;;;;;7.05;3.67;;;;;;;20.36;80.69;99398.66;4975175;28;20050;-67
2021/07/29 04:27:39;;;;;;;6.40;3.78;;;;;;;20.30;80.13;99404.13;4975379;28;20086;-68
2021/07/29 04:30:09;;;;;;;7.65;4.65;;;;;;;20.34;79.99;99392.69;4975095;28;20039;-68
2021/07/29 04:32:39;;;;;;;6.60;3.90;;;;;;;20.44;79.98;99399.16;4975314;28;20043;-68
2021/07/29 04:35:08;;;;;;;5.68;3.78;;;;;;;20.50;79.53;99398.84;4974997;28;20047;-68
2021/07/29 04:37:37;;;;;;;6.15;4.00;;;;;;;20.51;79.34;99410.94;4975496;28;20043;-68
2021/07/29 04:40:09;;;;;;;6.60;3.88;;;;;;;20.51;79.32;99405.75;4974911;28;20071;-68
2021/07/29 04:42:38;;;;;;;7.30;4.25;;;;;;;20.63;79.40;99410.38;4974890;28;20046;-69
2021/07/29 04:45:09;;;;;;;7.05;3.88;;;;;;;20.71;78.91;99413.44;4974925;28;20062;-69
2021/07/29 04:47:38;;;;;;;6.22;3.85;;;;;;;20.63;78.21;99415.56;4975366;28;20073;-68
2021/07/29 04:50:07;;;;;;;6.15;3.45;;;;;;;20.60;78.11;99420.88;4975147;28;20039;-68
2021/07/29 04:52:36;;;;;;;6.78;3.78;;;;;;;20.52;78.11;99412.59;4975024;28;20043;-68
2021/07/29 04:55:07;;;;;;;5.65;3.58;;;;;;;20.58;77.71;99412.31;4974999;28;20082;-68
2021/07/29 04:57:36;;;;;;;6.13;3.50;;;;;;;20.83;77.17;99412.88;4974693;28;20039;-68
2021/07/29 05:00:07;;;;;;;4.97;3.20;;;;;;;21.00;76.16;99409.47;4974701;28;20101;-68
2021/07/29 05:02:35;;;;;;;5.82;3.40;;;;;;;21.28;75.29;99412.50;4973539;28;20051;-68
2021/07/29 05:05:05;;;;;;;6.05;3.60;;;;;;;21.56;74.72;99419.75;4974667;28;20059;-68
2021/07/29 05:07:35;;;;;;;5.40;3.47;;;;;;;21.73;74.07;99419.75;4974416;28;20074;-68
2021/07/29 05:10:04;;;;;;;5.90;3.30;;;;;;;21.66;73.37;99436.56;4974654;28;20043;-68
2021/07/29 05:12:35;;;;;;;5.88;3.65;;;;;;;21.65;73.53;99435.72;4974541;28;20560;-68
2021/07/29 05:15:04;;;;;;;5.00;3.10;;;;;;;21.89;72.67;99433.69;4974638;28;20402;-68
2021/07/29 05:17:33;;;;;;;5.95;3.72;;;;;;;22.16;72.35;99437.47;4978348;28;20134;-68
2021/07/29 05:20:02;;;;;;;7.55;3.28;;;;;;;22.29;71.86;99433.31;4978496;28;20042;-68
2021/07/29 05:22:31;;;;;;;6.03;3.67;;;;;;;22.44;71.12;99427.31;4978364;28;20047;-69
2021/07/29 05:25:00;;;;;;;4.68;3.10;;;;;;;22.48;70.59;99434.00;4978620;28;20497;-69
2021/07/29 05:27:29;;;;;;;8.38;3.80;;;;;;;22.68;69.98;99431.22;4978127;28;20049;-69
2021/07/29 05:29:59;;;;;;;4.75;3.00;;;;;;;22.74;69.15;99429.22;4978269;28;20045;-68
2021/07/29 05:32:29;;;;;;;4.75;2.97;;;;;;;22.88;68.30;99429.31;4978498;28;20129;-68
2021/07/29 05:34:58;;;;;;;7.20;3.38;;;;;;;22.95;67.68;99428.03;4978315;28;20098;-68
2021/07/29 05:37:27;;;;;;;6.20;3.50;;;;;;;23.05;67.81;99429.22;4978128;28;20043;-68
2021/07/29 05:39:56;;;;;;;;;;;;;;;23.02;67.50;99430.22;4979105;28;20059;-68
2021/07/29 05:42:25;;;;;;;5.75;3.30;;;;;;;23.09;67.49;99430.72;4978564;28;19969;-68
2021/07/29 05:44:54;;;;;;;;;;;;;;;22.95;66.39;99435.84;4978403;28;20489;-68
2021/07/29 05:47:25;;;;;;;7.72;3.95;;;;;;;22.91;67.27;99436.97;4977894;28;19926;-67
2021/07/29 05:49:54;;;;;;;7.90;3.83;;;;;;;22.96;67.41;99435.75;4977913;28;20386;-67
2021/07/29 05:52:23;;;;;;;6.70;3.45;;;;;;;23.01;67.22;99427.72;4977857;28;20117;-67
2021/07/29 05:54:52;;;;;;;5.00;3.30;;;;;;;22.72;66.63;99437.13;4978070;28;20085;-67
2021/07/29 05:57:21;;;;;;;7.13;3.38;;;;;;;22.52;67.37;99432.94;4977933;28;20496;-67
2021/07/29 05:59:50;;;;;;;5.05;3.08;;;;;;;22.64;66.89;99429.72;4978093;28;20122;-66
2021/07/29 06:02:19;;;;;;;6.10;3.83;;;;;;;23.00;66.76;99433.84;4978022;28;20171;-67
2021/07/29 06:04:49;;;;;;;7.32;3.38;;;;;;;23.23;65.88;99438.59;4977915;28;20050;-67
2021/07/29 06:07:19;;;;;;;6.50;3.67;;;;;;;23.42;65.81;99441.06;4977550;28;20500;-67
2021/07/29 06:09:48;;;;;;;7.20;3.60;;;;;;;23.51;64.81;99443.97;4977513;28;20039;-67
2021/07/29 06:12:17;;;;;;;5.55;3.22;;;;;;;23.42;64.16;99439.25;4977452;28;20045;-67
2021/07/29 06:14:46;;;;;;;5.90;2.95;;;;;;;23.37;64.31;99441.28;4978172;28;20042;-67
2021/07/29 06:17:15;;;;;;;5.28;3.47;;;;;;;23.54;64.45;99454.19;4977455;28;20516;-67
2021/07/29 06:19:44;;;;;;;5.82;3.25;;;;;;;23.59;63.96;99457.38;4977405;28;20067;-68
2021/07/29 06:22:14;;;;;;;5.70;3.38;;;;;;;23.53;64.53;99457.75;4977666;28;20112;-68
2021/07/29 06:24:43;;;;;;;10.82;3.75;;;;;;;23.76;64.17;99454.66;4977448;28;20053;-68
2021/07/29 06:27:12;;;;;;;5.88;3.42;;;;;;;24.00;63.51;99458.44;4976900;28;20054;-69
2021/07/29 06:29:41;;;;;;;5.57;3.50;;;;;;;24.05;62.63;99454.69;4977274;28;20043;-68
2021/07/29 06:32:13;;;;;;;5.47;3.58;;;;;;;24.20;62.41;99453.84;4977507;28;20039;-68
2021/07/29 06:34:42;;;;;;;5.80;3.33;;;;;;;24.33;61.90;99455.59;4976911;28;20047;-68
2021/07/29 06:37:11;;;;;;;6.30;3.40;;;;;;;24.34;60.89;99456.44;4977846;28;20039;-68
2021/07/29 06:39:41;;;;;;;5.30;3.22;;;;;;;24.26;60.21;99458.69;4977688;28;20443;-68
2021/07/29 06:42:10;;;;;;;5.68;3.42;;;;;;;24.26;60.60;99458.69;4976953;28;20058;-68
2021/07/29 06:44:41;;;;;;;4.88;3.38;;;;;;;24.30;60.72;99461.03;4977138;28;20047;-69
2021/07/29 06:47:14;;;;;;;5.45;3.25;;;;;;;24.33;60.51;99460.00;4976824;28;20524;-68
2021/07/29 06:49:43;;;;;;;5.22;3.33;;;;;;;24.39;60.52;99464.84;4977667;28;20453;-69
2021/07/29 06:52:12;;;;;;;;;;;;;;;24.39;60.48;99463.06;4977202;28;20054;-68
2021/07/29 06:54:43;;;;;;;5.68;3.10;;;;;;;24.48;61.29;99459.91;4976981;28;19926;-69
2021/07/29 06:57:12;;;;;;;4.95;3.30;;;;;;;24.52;61.14;99460.56;4976727;28;20051;-69
2021/07/29 06:59:41;;;;;;;4.68;3.03;;;;;;;24.45;61.11;99464.47;4976554;28;20523;-69
2021/07/29 07:02:11;;;;;;;9.07;3.45;;;;;;;24.65;61.12;99466.69;4976912;28;20046;-69
2021/07/29 07:04:40;;;;;;;5.20;2.90;;;;;;;24.83;60.97;99476.03;4976704;28;20047;-69
2021/07/29 07:07:15;;;;;;;5.15;2.67;;;;;;;24.88;60.33;99476.59;4976439;28;20138;-69
2021/07/29 07:09:46;;;;;;;9.02;3.33;;;;;;;25.11;59.68;99475.13;4976796;28;20434;-69
2021/07/29 07:12:15;;;;;;;6.95;3.58;;;;;;;25.12;58.99;99471.59;4976621;28;20105;-69
2021/07/29 07:14:44;;;;;;;6.30;3.58;;;;;;;25.22;58.52;99470.06;4976763;28;20043;-69
2021/07/29 07:17:13;;;;;;;4.45;3.00;;;;;;;25.20;58.29;99464.94;4976571;28;20035;-69
2021/07/29 07:19:42;;;;;;;5.30;3.22;;;;;;;24.92;58.47;99465.03;4976241;28;20113;-69
2021/07/29 07:22:11;;;;;;;5.05;2.95;;;;;;;25.21;58.42;99466.63;4974941;28;20049;-69
2021/07/29 07:24:40;;;;;;;5.57;3.33;;;;;;;25.17;58.50;99464.31;4976472;28;20481;-69
2021/07/29 07:27:12;;;;;;;5.32;3.50;;;;;;;25.30;58.67;99460.81;4976702;28;20093;-69
2021/07/29 07:29:41;;;;;;;4.68;3.10;;;;;;;25.44;59.02;99462.56;4975955;28;20047;-69
2021/07/29 07:32:10;;;;;;;5.65;3.22;;;;;;;25.36;58.95;99458.75;4976280;28;20426;-69
2021/07/29 07:34:39;;;;;;;4.88;3.03;;;;;;;25.34;59.05;99465.84;4975681;28;20517;-69
2021/07/29 07:37:09;;;;;;;6.25;3.10;;;;;;;25.57;58.51;99467.81;4976142;28;20527;-69
2021/07/29 07:39:38;;;;;;;5.57;3.08;;;;;;;25.77;57.89;99472.59;4975230;28;20063;-69
2021/07/29 07:42:07;;;;;;;4.90;2.95;;;;;;;25.75;56.25;99464.00;4975791;28;20043;-69
2021/07/29 07:44:37;;;;;;;4.10;2.70;;;;;;;25.91;54.78;99464.66;4975877;28;20042;-69
2021/07/29 07:47:06;;;;;;;6.38;2.90;;;;;;;26.10;54.46;99457.25;4975762;28;20050;-69
2021/07/29 07:49:35;;;;;;;4.97;3.03;;;;;;;26.25;55.28;99466.69;4975956;28;20078;-69
2021/07/29 07:52:05;;;;;;;7.95;3.15;;;;;;;26.40;54.56;99457.78;4975793;28;20105;-68
2021/07/29 07:54:34;;;;;;;4.57;3.10;;;;;;;26.22;53.52;99461.69;4975706;28;20042;-68
2021/07/29 07:57:04;;;;;;;5.50;3.00;;;;;;;26.00;53.47;99458.81;4975893;28;20481;-69
2021/07/29 07:59:37;;;;;;;4.60;2.97;;;;;;;26.05;54.47;99458.50;4975483;28;20047;-69
2021/07/29 08:02:07;;;;;;;4.90;2.83;;;;;;;26.32;53.94;99452.25;4975532;28;20042;-68
2021/07/29 08:04:36;;;;;;;5.25;2.80;;;;;;;26.55;52.42;99448.88;4975394;28;20101;-68
2021/07/29 08:07:05;;;;;;;5.18;3.05;;;;;;;26.53;52.15;99448.16;4975351;28;20054;-69
2021/07/29 08:09:34;;;;;;;5.00;3.40;;;;;;;26.34;52.04;99445.16;4975473;28;20133;-68
2021/07/29 08:12:04;;;;;;;5.80;2.90;;;;;;;26.31;51.89;99437.50;4975242;28;20469;-68
2021/07/29 08:14:37;;;;;;;5.22;3.50;;;;;;;26.50;52.54;99440.50;4975540;28;20071;-68
2021/07/29 08:17:06;;;;;;;19.25;6.00;;;;;;;26.80;52.30;99445.41;4975368;28;20138;-68
2021/07/29 08:19:36;;;;;;;5.25;3.28;;;;;;;26.98;51.59;99443.25;4975777;28;20138;-68
2021/07/29 08:22:05;;;;;;;5.57;2.92;;;;;;;27.04;51.26;99445.44;4975142;28;20050;-68
2021/07/29 08:24:34;;;;;;;6.90;3.42;;;;;;;27.03;50.84;99449.00;4975378;28;20497;-68
2021/07/29 08:27:03;;;;;;;4.95;3.05;;;;;;;26.86;50.04;99454.59;4975069;28;20449;-68
2021/07/29 08:29:33;;;;;;;7.20;3.30;;;;;;;26.76;50.51;99445.72;4974929;28;20039;-68
2021/07/29 08:32:06;;;;;;;7.40;3.40;;;;;;;26.88;50.56;99450.09;4975403;28;20050;-68
2021/07/29 08:34:35;;;;;;;7.93;3.58;;;;;;;27.04;50.39;99451.50;4974784;28;20062;-68
2021/07/29 08:37:04;;;;;;;6.22;3.38;;;;;;;27.03;50.69;99454.25;4975125;28;20089;-68
2021/07/29 08:39:33;;;;;;;5.05;3.53;;;;;;;27.08;50.27;99457.38;4975034;28;20049;-68
2021/07/29 08:42:02;;;;;;;4.93;3.08;;;;;;;27.25;50.80;99449.13;4974855;28;20552;-68
2021/07/29 08:44:31;;;;;;;;;;;;;;;27.34;50.09;99458.94;4975295;28;20045;-68
2021/07/29 08:47:01;;;;;;;5.05;2.92;;;;;;;27.37;51.44;99457.88;4974772;28;20013;-68
2021/07/29 08:49:33;;;;;;;5.30;3.45;;;;;;;27.48;51.52;99458.78;4974722;28;20126;-68
2021/07/29 08:52:03;;;;;;;5.80;3.33;;;;;;;27.49;52.15;99457.00;4974884;28;20054;-69
2021/07/29 08:54:32;;;;;;;5.18;3.20;;;;;;;27.46;50.33;99457.22;4975119;28;20043;-68
2021/07/29 08:57:01;;;;;;;5.15;3.17;;;;;;;27.36;49.95;99457.03;4974722;28;20058;-69
2021/07/29 08:59:32;;;;;;;5.15;3.25;;;;;;;27.33;49.51;99459.88;4974736;28;20074;-69
2021/07/29 09:02:01;;;;;;;6.13;3.20;;;;;;;27.25;49.84;99454.38;4975049;28;20400;-68
2021/07/29 09:04:30;;;;;;;;;;;;;;;27.24;50.29;99452.69;4975217;28;20055;-68
2021/07/29 09:07:02;;;;;;;5.07;3.20;;;;;;;27.36;49.40;99450.94;4974648;28;20012;-68
2021/07/29 09:09:45;;;;;;;6.88;3.58;;;;;;;27.30;49.53;99447.00;4974587;28;20094;-68
2021/07/29 09:12:20;;;;;;;5.10;3.10;;;;;;;27.33;49.27;99446.75;4974466;28;20057;-69
2021/07/29 09:14:50;;;;;;;6.00;3.25;;;;;;;27.36;49.04;99446.56;4974972;28;20043;-68
2021/07/29 09:17:21;;;;;;;5.15;3.13;;;;;;;27.44;50.55;99444.25;4974622;28;20409;-69
2021/07/29 09:19:50;;;;;;;5.63;3.42;;;;;;;27.57;50.42;99447.63;4974445;28;20050;-69
2021/07/29 09:22:22;;;;;;;4.95;3.08;;;;;;;27.70;48.34;99450.19;4974608;28;20047;-68
2021/07/29 09:25:00;;;;;;;5.25;3.38;;;;;;;27.86;48.15;99446.28;4974420;28;20105;-69
2021/07/29 09:27:42;;;;;;;6.25;3.13;;;;;;;28.06;48.15;99447.44;4974736;28;20054;-69
2021/07/29 09:30:13;;;;;;;4.82;3.20;;;;;;;28.34;49.18;99446.97;4974431;28;20047;-69
2021/07/29 09:32:54;;;;;;;4.97;3.05;;;;;;;28.15;49.22;99440.63;4974436;28;20066;-71
2021/07/29 09:35:31;;;;;;;4.47;2.70;;;;;;;28.34;48.14;99441.72;4974347;28;20121;-69
2021/07/29 09:38:03;;;;;;;7.03;3.72;;;;;;;28.36;47.43;99439.00;4974701;28;20058;-69
2021/07/29 09:40:43;;;;;;;5.53;3.08;;;;;;;28.15;47.96;99446.72;4975041;28;20046;-69
2021/07/29 09:43:14;;;;;;;6.45;3.15;;;;;;;28.19;48.72;99442.09;4974375;28;20072;-69
2021/07/29 09:45:46;;;;;;;5.28;3.03;;;;;;;28.10;49.00;99442.81;4987637;28;20031;-70
2021/07/29 09:48:17;;;;;;;5.88;3.33;;;;;;;28.36;48.87;99444.25;4990360;28;20047;-70
2021/07/29 09:50:47;;;;;;;5.50;3.20;;;;;;;28.61;47.49;99438.78;4990430;28;20496;-69
2021/07/29 09:53:18;;;;;;;5.82;3.47;;;;;;;28.70;46.47;99437.25;4990623;28;20518;-70
2021/07/29 09:55:47;;;;;;;5.32;3.58;;;;;;;28.59;45.66;99435.41;4976214;28;20042;-69
2021/07/29 09:58:16;;;;;;;4.90;3.03;;;;;;;28.72;45.87;99436.16;4993693;28;20062;-69
2021/07/29 10:00:45;;;;;;;8.43;3.50;;;;;;;28.64;45.72;99438.53;4993918;28;20133;-69
2021/07/29 10:03:16;;;;;;;6.05;3.00;;;;;;;28.51;46.73;99432.53;4996413;28;20045;-69
2021/07/29 10:05:51;;;;;;;5.75;3.00;;;;;;;28.14;46.64;99424.06;4997075;28;20503;-69
2021/07/29 10:08:29;;;;;;;5.35;3.00;;;;;;;28.51;47.49;99432.53;4997068;28;20046;-68
2021/07/29 10:10:59;;;;;;;4.85;3.05;;;;;;;28.85;45.61;99426.31;4997490;28;20066;-69
2021/07/29 10:13:36;;;;;;;5.10;3.00;;;;;;;28.76;44.67;99424.44;4997018;28;20050;-69
2021/07/29 10:16:05;;;;;;;5.57;3.60;;;;;;;28.91;45.01;99415.34;4997115;28;20046;-69
2021/07/29 10:18:56;;;;;;;4.88;3.20;;;;;;;28.93;45.56;99418.69;4996785;28;20089;-69
2021/07/29 10:21:28;;;;;;;4.95;3.15;;;;;;;28.81;45.27;99416.19;4997146;28;20434;-69
2021/07/29 10:24:00;;;;;;;5.95;3.00;;;;;;;29.17;45.84;99416.69;4996813;28;20449;-69
2021/07/29 10:26:30;;;;;;;6.30;3.63;;;;;;;29.38;44.43;99413.28;4997327;28;20488;-69
2021/07/29 10:29:27;;;;;;;5.20;3.35;;;;;;;29.20;44.66;99416.47;4996902;28;20184;-69
2021/07/29 10:31:58;;;;;;;5.53;3.15;;;;;;;29.39;44.18;99420.22;4997327;28;20047;-69
2021/07/29 10:34:29;;;;;;;6.45;3.17;;;;;;;29.57;43.49;99423.97;4996809;28;20050;-69
2021/07/29 10:36:59;;;;;;;5.20;3.35;;;;;;;29.71;44.36;99416.59;4997070;28;20048;-69
2021/07/29 10:39:30;;;;;;;5.25;2.72;;;;;;;29.91;44.01;99422.00;4996527;28;20031;-69
2021/07/29 10:42:00;;;;;;;4.90;3.00;;;;;;;29.94;43.42;99419.13;4996460;28;20497;-69
2021/07/29 10:44:46;;;;;;;4.47;3.10;;;;;;;30.01;44.28;99421.13;4996725;28;20039;-69
2021/07/29 10:47:33;;;;;;;4.25;2.85;;;;;;;30.13;44.35;99412.16;4996520;28;20515;-69
2021/07/29 10:50:13;;;;;;;5.03;2.85;;;;;;;30.29;44.92;99412.50;4996246;28;20050;-69
2021/07/29 10:52:46;;;;;;;4.78;3.17;;;;;;;30.26;44.13;99407.50;4996627;28;20116;-69
2021/07/29 10:55:18;;;;;;;3.97;2.72;;;;;;;30.42;42.72;99402.63;4979288;28;20049;-69
2021/07/29 10:57:58;;;;;;;4.88;2.85;;;;;;;30.46;42.22;99409.28;4996124;28;20046;-69
2021/07/29 11:00:27;;;;;;;4.68;2.97;;;;;;;30.50;42.57;99410.69;4996157;28;20043;-69
2021/07/29 11:02:57;;;;;;;;;;;;;;;30.59;42.36;99403.78;4996544;28;20423;-70
2021/07/29 11:05:39;;;;;;;4.70;2.95;;;;;;;30.46;41.68;99401.38;4996051;28;19921;-69
2021/07/29 11:08:08;;;;;;;5.43;2.67;;;;;;;30.57;41.87;99404.91;4996337;28;20054;-69
2021/07/29 11:10:39;;;;;;;4.57;2.85;;;;;;;30.57;40.89;99400.44;4996096;28;20489;-69
2021/07/29 11:13:09;;;;;;;4.65;2.80;;;;;;;30.80;41.60;99398.41;4995589;28;20049;-69
2021/07/29 11:15:39;;;;;;;5.30;2.80;;;;;;;31.01;42.07;99399.19;4995704;28;20554;-69
2021/07/29 11:18:15;;;;;;;4.10;2.70;;;;;;;31.06;40.76;99405.72;4995821;28;20523;-69
2021/07/29 11:20:44;;;;;;;4.53;2.75;;;;;;;31.04;39.83;99409.47;4995800;28;20492;-69
2021/07/29 11:23:15;;;;;;;5.50;2.83;;;;;;;30.73;40.43;99399.94;4995727;28;20050;-69
2021/07/29 11:26:00;;;;;;;6.43;3.05;;;;;;;30.83;41.21;99406.06;4996131;28;20485;-69
2021/07/29 11:28:29;;;;;;;5.45;2.97;;;;;;;30.87;40.18;99407.44;4995779;28;20054;-69
2021/07/29 11:31:18;;;;;;;4.97;3.40;;;;;;;31.03;40.12;99403.34;4978504;28;20047;-69
2021/07/29 11:33:52;;;;;;;5.00;2.90;;;;;;;31.04;40.39;99398.91;4995314;28;20035;-69
2021/07/29 11:36:21;;;;;;;4.38;2.70;;;;;;;30.94;39.80;99390.16;4995426;28;20081;-69
2021/07/29 11:38:58;;;;;;;4.65;2.58;;;;;;;31.06;40.44;99391.69;4995494;28;20046;-69
2021/07/29 11:41:32;;;;;;;5.05;2.90;;;;;;;30.86;40.85;99392.59;4995736;28;20093;-69
2021/07/29 11:44:03;;;;;;;4.70;3.00;;;;;;;31.00;40.13;99392.25;4995944;28;20048;-69
2021/07/29 11:46:33;;;;;;;4.80;2.97;;;;;;;31.17;40.70;99395.03;4995283;28;20046;-69
2021/07/29 11:49:04;;;;;;;4.38;2.90;;;;;;;31.12;39.92;99385.88;4995185;28;20047;-69
2021/07/29 11:51:33;;;;;;;4.35;2.72;;;;;;;30.96;40.15;99385.56;4978097;28;20042;-69
2021/07/29 11:54:02;;;;;;;3.80;2.78;;;;;;;31.12;40.22;99391.16;4995094;28;20077;-69